Open Full Screen Window  High Contrast Mode
August 30, 2016 2:13 AM CDT
Weather Information
Wind Direction
  ---
Wind Speed
  00 kt (0 mph)
Wind Gust
  00 kt (0 mph)
Altimeter
30.20 in
Visibility
10 SM
Temperature
18° C
64° F
Dewpoint
18° C
64° F
Humidity
100%
Sky Condition
Clear
VFR

METAR KAXV 300713Z AUTO 00000KT 10SM CLR 18/18 A3020 RMK AO2

*Background is not an actual portrayal of the airport.